sensor_id;sensor_type;location;lat;lon;timestamp;pressure;altitude;pressure_sealevel;temperature;humidity
59170;BME280;52474;52.236;5.114;2023-11-21T00:00:14;101131.16;;;5.70;100.00
59170;BME280;52474;52.236;5.114;2023-11-21T00:02:40;101131.34;;;5.67;100.00
59170;BME280;52474;52.236;5.114;2023-11-21T00:05:10;101106.09;;;5.50;100.00
59170;BME280;52474;52.236;5.114;2023-11-21T00:07:38;101125.06;;;5.55;100.00
59170;BME280;52474;52.236;5.114;2023-11-21T00:10:04;101130.78;;;5.47;100.00
59170;BME280;52474;52.236;5.114;2023-11-21T00:12:31;101125.41;;;5.34;100.00
59170;BME280;52474;52.236;5.114;2023-11-21T00:14:57;101136.09;;;5.46;100.00
59170;BME280;52474;52.236;5.114;2023-11-21T00:17:23;101121.91;;;5.34;100.00
59170;BME280;52474;52.236;5.114;2023-11-21T00:19:49;101119.38;;;5.32;100.00
59170;BME280;52474;52.236;5.114;2023-11-21T00:22:17;101119.72;;;5.26;100.00
59170;BME280;52474;52.236;5.114;2023-11-21T00:24:43;101152.78;;;5.30;100.00
59170;BME280;52474;52.236;5.114;2023-11-21T00:27:09;101130.69;;;5.19;100.00
59170;BME280;52474;52.236;5.114;2023-11-21T00:29:35;101153.28;;;5.21;100.00
59170;BME280;52474;52.236;5.114;2023-11-21T00:32:00;101131.13;;;5.11;100.00
59170;BME280;52474;52.236;5.114;2023-11-21T00:34:27;101156.50;;;5.26;100.00
59170;BME280;52474;52.236;5.114;2023-11-21T00:36:53;101151.44;;;5.23;100.00
59170;BME280;52474;52.236;5.114;2023-11-21T00:39:20;101134.78;;;5.08;100.00
59170;BME280;52474;52.236;5.114;2023-11-21T00:41:45;101147.03;;;5.24;100.00
59170;BME280;52474;52.236;5.114;2023-11-21T00:44:11;101121.22;;;5.16;100.00
59170;BME280;52474;52.236;5.114;2023-11-21T00:46:37;101139.44;;;5.33;100.00
59170;BME280;52474;52.236;5.114;2023-11-21T00:49:02;101131.19;;;5.25;100.00
59170;BME280;52474;52.236;5.114;2023-11-21T00:51:31;101153.25;;;5.37;100.00
59170;BME280;52474;52.236;5.114;2023-11-21T00:53:57;101150.44;;;5.40;100.00
59170;BME280;52474;52.236;5.114;2023-11-21T00:56:23;101146.53;;;5.47;100.00
59170;BME280;52474;52.236;5.114;2023-11-21T00:58:49;101153.69;;;5.59;100.00
59170;BME280;52474;52.236;5.114;2023-11-21T01:01:18;101160.06;;;5.70;100.00
59170;BME280;52474;52.236;5.114;2023-11-21T01:03:47;101154.47;;;5.76;100.00
59170;BME280;52474;52.236;5.114;2023-11-21T01:06:13;101171.94;;;5.91;100.00
59170;BME280;52474;52.236;5.114;2023-11-21T01:08:38;101141.13;;;5.79;100.00
59170;BME280;52474;52.236;5.114;2023-11-21T01:11:04;101182.56;;;6.04;100.00
59170;BME280;52474;52.236;5.114;2023-11-21T01:13:33;101130.44;;;5.82;100.00
59170;BME280;52474;52.236;5.114;2023-11-21T01:15:58;101171.59;;;6.12;100.00
59170;BME280;52474;52.236;5.114;2023-11-21T01:18:24;101160.13;;;6.13;100.00
59170;BME280;52474;52.236;5.114;2023-11-21T01:20:51;101177.03;;;6.23;100.00
59170;BME280;52474;52.236;5.114;2023-11-21T01:23:19;101174.78;;;6.31;100.00
59170;BME280;52474;52.236;5.114;2023-11-21T01:25:45;101185.56;;;6.41;100.00
59170;BME280;52474;52.236;5.114;2023-11-21T01:28:10;101154.00;;;6.27;100.00
59170;BME280;52474;52.236;5.114;2023-11-21T01:30:36;101183.22;;;6.51;100.00
59170;BME280;52474;52.236;5.114;2023-11-21T01:33:02;101172.50;;;6.39;100.00
59170;BME280;52474;52.236;5.114;2023-11-21T01:35:30;101170.53;;;6.43;100.00
59170;BME280;52474;52.236;5.114;2023-11-21T01:37:56;101185.56;;;6.55;100.00
59170;BME280;52474;52.236;5.114;2023-11-21T01:40:21;101171.16;;;6.47;100.00
59170;BME280;52474;52.236;5.114;2023-11-21T01:42:47;101204.53;;;6.60;100.00
59170;BME280;52474;52.236;5.114;2023-11-21T01:45:14;101194.75;;;6.62;100.00
59170;BME280;52474;52.236;5.114;2023-11-21T01:47:41;101205.38;;;6.61;100.00
59170;BME280;52474;52.236;5.114;2023-11-21T01:50:08;101211.09;;;6.68;100.00
59170;BME280;52474;52.236;5.114;2023-11-21T01:52:37;101220.47;;;6.72;100.00
59170;BME280;52474;52.236;5.114;2023-11-21T01:55:06;101175.03;;;6.55;100.00
59170;BME280;52474;52.236;5.114;2023-11-21T01:57:35;101204.88;;;6.69;100.00
59170;BME280;52474;52.236;5.114;2023-11-21T02:00:03;101214.16;;;6.74;100.00
59170;BME280;52474;52.236;5.114;2023-11-21T02:02:48;101221.22;;;6.74;100.00
59170;BME280;52474;52.236;5.114;2023-11-21T02:05:18;101226.69;;;6.71;100.00
59170;BME280;52474;52.236;5.114;2023-11-21T02:07:45;101194.47;;;6.53;100.00
59170;BME280;52474;52.236;5.114;2023-11-21T02:10:14;101235.81;;;6.79;100.00
59170;BME280;52474;52.236;5.114;2023-11-21T02:12:41;101232.13;;;6.82;100.00
59170;BME280;52474;52.236;5.114;2023-11-21T02:15:09;101231.16;;;6.83;100.00
59170;BME280;52474;52.236;5.114;2023-11-21T02:17:41;101231.94;;;6.85;100.00
59170;BME280;52474;52.236;5.114;2023-11-21T02:20:11;101233.31;;;6.91;100.00
59170;BME280;52474;52.236;5.114;2023-11-21T02:22:42;101237.53;;;6.93;100.00
59170;BME280;52474;52.236;5.114;2023-11-21T02:25:08;101230.22;;;6.84;100.00
59170;BME280;52474;52.236;5.114;2023-11-21T02:27:34;101239.97;;;6.96;100.00
59170;BME280;52474;52.236;5.114;2023-11-21T02:30:00;101215.38;;;6.83;100.00
59170;BME280;52474;52.236;5.114;2023-11-21T02:32:26;101248.34;;;7.03;100.00
59170;BME280;52474;52.236;5.114;2023-11-21T02:34:52;101244.66;;;7.05;100.00
59170;BME280;52474;52.236;5.114;2023-11-21T02:37:21;101255.84;;;7.09;100.00
59170;BME280;52474;52.236;5.114;2023-11-21T02:39:47;101246.16;;;7.09;100.00
59170;BME280;52474;52.236;5.114;2023-11-21T02:42:12;101248.03;;;7.07;100.00
59170;BME280;52474;52.236;5.114;2023-11-21T02:44:38;101234.53;;;6.99;100.00
59170;BME280;52474;52.236;5.114;2023-11-21T02:47:04;101230.41;;;6.95;100.00
59170;BME280;52474;52.236;5.114;2023-11-21T02:49:29;101248.78;;;7.09;100.00
59170;BME280;52474;52.236;5.114;2023-11-21T02:51:56;101239.50;;;7.04;100.00
59170;BME280;52474;52.236;5.114;2023-11-21T02:54:22;101215.63;;;6.93;100.00
59170;BME280;52474;52.236;5.114;2023-11-21T02:56:48;101236.66;;;7.07;100.00
59170;BME280;52474;52.236;5.114;2023-11-21T02:59:15;101244.16;;;7.13;100.00
59170;BME280;52474;52.236;5.114;2023-11-21T03:01:41;101239.84;;;7.12;100.00
59170;BME280;52474;52.236;5.114;2023-11-21T03:04:07;101214.03;;;6.90;100.00
59170;BME280;52474;52.236;5.114;2023-11-21T03:06:33;101220.91;;;6.93;100.00
59170;BME280;52474;52.236;5.114;2023-11-21T03:08:59;101248.34;;;7.03;100.00
59170;BME280;52474;52.236;5.114;2023-11-21T03:11:25;101209.38;;;6.81;100.00
59170;BME280;52474;52.236;5.114;2023-11-21T03:13:51;101233.97;;;6.94;100.00
59170;BME280;52474;52.236;5.114;2023-11-21T03:16:18;101255.75;;;7.10;100.00
59170;BME280;52474;52.236;5.114;2023-11-21T03:18:45;101224.50;;;6.92;100.00
59170;BME280;52474;52.236;5.114;2023-11-21T03:21:12;101237.03;;;7.01;100.00
59170;BME280;52474;52.236;5.114;2023-11-21T03:23:37;101227.97;;;6.92;100.00
59170;BME280;52474;52.236;5.114;2023-11-21T03:26:03;101245.50;;;7.06;100.00
59170;BME280;52474;52.236;5.114;2023-11-21T03:28:30;101250.69;;;7.07;100.00
59170;BME280;52474;52.236;5.114;2023-11-21T03:30:56;101252.34;;;7.08;100.00
59170;BME280;52474;52.236;5.114;2023-11-21T03:33:23;101237.03;;;7.01;100.00
59170;BME280;52474;52.236;5.114;2023-11-21T03:35:49;101260.09;;;7.12;100.00
59170;BME280;52474;52.236;5.114;2023-11-21T03:38:14;101269.47;;;7.16;100.00
59170;BME280;52474;52.236;5.114;2023-11-21T03:40:41;101276.31;;;7.18;100.00
59170;BME280;52474;52.236;5.114;2023-11-21T03:43:07;101273.13;;;7.13;100.00
59170;BME280;52474;52.236;5.114;2023-11-21T03:45:33;101244.84;;;7.02;100.00
59170;BME280;52474;52.236;5.114;2023-11-21T03:47:58;101267.88;;;7.13;100.00
59170;BME280;52474;52.236;5.114;2023-11-21T03:50:31;101270.63;;;7.12;100.00
59170;BME280;52474;52.236;5.114;2023-11-21T03:52:57;101256.91;;;7.06;100.00
59170;BME280;52474;52.236;5.114;2023-11-21T03:55:22;101257.94;;;7.04;100.00
59170;BME280;52474;52.236;5.114;2023-11-21T03:57:52;101270.31;;;7.16;100.00
59170;BME280;52474;52.236;5.114;2023-11-21T04:00:19;101277.56;;;7.13;100.00
59170;BME280;52474;52.236;5.114;2023-11-21T04:02:45;101292.03;;;7.20;100.00
59170;BME280;52474;52.236;5.114;2023-11-21T04:05:11;101308.31;;;7.26;100.00
59170;BME280;52474;52.236;5.114;2023-11-21T04:07:37;101293.63;;;7.22;100.00
59170;BME280;52474;52.236;5.114;2023-11-21T04:10:05;101286.75;;;7.20;100.00
59170;BME280;52474;52.236;5.114;2023-11-21T04:12:33;101312.66;;;7.40;100.00
59170;BME280;52474;52.236;5.114;2023-11-21T04:14:59;101304.13;;;7.37;100.00
59170;BME280;52474;52.236;5.114;2023-11-21T04:17:24;101305.81;;;7.38;100.00
59170;BME280;52474;52.236;5.114;2023-11-21T04:19:50;101277.28;;;7.17;100.00
59170;BME280;52474;52.236;5.114;2023-11-21T04:22:16;101322.06;;;7.44;100.00
59170;BME280;52474;52.236;5.114;2023-11-21T04:24:41;101307.50;;;7.39;100.00
59170;BME280;52474;52.236;5.114;2023-11-21T04:27:07;101335.78;;;7.49;100.00
59170;BME280;52474;52.236;5.114;2023-11-21T04:29:33;101333.91;;;7.51;100.00
59170;BME280;52474;52.236;5.114;2023-11-21T04:31:59;101327.50;;;7.56;100.00
59170;BME280;52474;52.236;5.114;2023-11-21T04:34:24;101337.94;;;7.57;100.00
59170;BME280;52474;52.236;5.114;2023-11-21T04:36:50;101338.22;;;7.52;100.00
59170;BME280;52474;52.236;5.114;2023-11-21T04:39:16;101299.22;;;7.30;100.00
59170;BME280;52474;52.236;5.114;2023-11-21T04:41:41;101343.78;;;7.48;100.00
59170;BME280;52474;52.236;5.114;2023-11-21T04:44:08;101345.78;;;7.44;100.00
59170;BME280;52474;52.236;5.114;2023-11-21T04:46:33;101291.28;;;7.18;100.00
59170;BME280;52474;52.236;5.114;2023-11-21T04:48:59;101338.72;;;7.45;100.00
59170;BME280;52474;52.236;5.114;2023-11-21T04:51:25;101322.91;;;7.45;100.00
59170;BME280;52474;52.236;5.114;2023-11-21T04:53:50;101346.97;;;7.53;100.00
59170;BME280;52474;52.236;5.114;2023-11-21T04:56:16;101339.47;;;7.47;100.00
59170;BME280;52474;52.236;5.114;2023-11-21T04:58:42;101297.00;;;7.24;100.00
59170;BME280;52474;52.236;5.114;2023-11-21T05:01:07;101355.63;;;7.55;100.00
59170;BME280;52474;52.236;5.114;2023-11-21T05:03:33;101327.34;;;7.44;100.00
59170;BME280;52474;52.236;5.114;2023-11-21T05:05:59;101341.22;;;7.61;100.00
59170;BME280;52474;52.236;5.114;2023-11-21T05:08:25;101347.34;;;7.61;100.00
59170;BME280;52474;52.236;5.114;2023-11-21T05:10:52;101339.22;;;7.64;100.00
59170;BME280;52474;52.236;5.114;2023-11-21T05:13:20;101358.88;;;7.73;100.00
59170;BME280;52474;52.236;5.114;2023-11-21T05:15:45;101345.47;;;7.63;100.00
59170;BME280;52474;52.236;5.114;2023-11-21T05:18:11;101371.44;;;7.82;100.00
59170;BME280;52474;52.236;5.114;2023-11-21T05:20:39;101339.78;;;7.69;100.00
59170;BME280;52474;52.236;5.114;2023-11-21T05:23:06;101354.03;;;7.80;100.00
59170;BME280;52474;52.236;5.114;2023-11-21T05:25:33;101370.56;;;7.96;100.00
59170;BME280;52474;52.236;5.114;2023-11-21T05:28:00;101340.97;;;7.78;100.00
59170;BME280;52474;52.236;5.114;2023-11-21T05:30:27;101368.00;;;7.94;100.00
59170;BME280;52474;52.236;5.114;2023-11-21T05:32:53;101382.94;;;8.08;100.00
59170;BME280;52474;52.236;5.114;2023-11-21T05:35:19;101361.88;;;7.94;100.00
59170;BME280;52474;52.236;5.114;2023-11-21T05:37:45;101389.34;;;8.04;100.00
59170;BME280;52474;52.236;5.114;2023-11-21T05:40:11;101395.97;;;7.97;100.00
59170;BME280;52474;52.236;5.114;2023-11-21T05:42:39;101397.09;;;8.07;100.00
59170;BME280;52474;52.236;5.114;2023-11-21T05:45:06;101375.06;;;7.94;100.00
59170;BME280;52474;52.236;5.114;2023-11-21T05:47:44;101407.97;;;8.15;100.00
59170;BME280;52474;52.236;5.114;2023-11-21T05:50:12;101397.72;;;8.11;100.00
59170;BME280;52474;52.236;5.114;2023-11-21T05:52:46;101396.66;;;8.13;100.00
59170;BME280;52474;52.236;5.114;2023-11-21T05:55:12;101408.28;;;8.24;100.00
59170;BME280;52474;52.236;5.114;2023-11-21T05:57:43;101392.13;;;8.15;100.00
59170;BME280;52474;52.236;5.114;2023-11-21T06:00:10;101413.94;;;8.32;100.00
59170;BME280;52474;52.236;5.114;2023-11-21T06:02:40;101386.72;;;8.04;100.00
59170;BME280;52474;52.236;5.114;2023-11-21T06:05:09;101396.03;;;8.10;100.00
59170;BME280;52474;52.236;5.114;2023-11-21T06:07:37;101416.75;;;8.29;100.00
59170;BME280;52474;52.236;5.114;2023-11-21T06:10:04;101412.63;;;8.25;100.00
59170;BME280;52474;52.236;5.114;2023-11-21T06:12:38;101442.25;;;8.43;100.00
59170;BME280;52474;52.236;5.114;2023-11-21T06:15:06;101441.41;;;8.42;100.00
59170;BME280;52474;52.236;5.114;2023-11-21T06:17:35;101424.91;;;8.38;100.00
59170;BME280;52474;52.236;5.114;2023-11-21T06:20:09;101427.53;;;8.38;100.00
59170;BME280;52474;52.236;5.114;2023-11-21T06:22:40;101422.50;;;8.48;100.00
59170;BME280;52474;52.236;5.114;2023-11-21T06:25:07;101451.50;;;8.75;100.00
59170;BME280;52474;52.236;5.114;2023-11-21T06:27:37;101432.91;;;8.77;100.00
59170;BME280;52474;52.236;5.114;2023-11-21T06:30:04;101398.22;;;8.56;100.00
59170;BME280;52474;52.236;5.114;2023-11-21T06:32:30;101437.88;;;8.81;100.00
59170;BME280;52474;52.236;5.114;2023-11-21T06:34:56;101452.75;;;8.95;100.00
59170;BME280;52474;52.236;5.114;2023-11-21T06:37:26;101457.09;;;9.09;100.00
59170;BME280;52474;52.236;5.114;2023-11-21T06:39:52;101466.31;;;9.16;100.00
59170;BME280;52474;52.236;5.114;2023-11-21T06:42:18;101412.00;;;8.87;100.00
59170;BME280;52474;52.236;5.114;2023-11-21T06:44:47;101471.38;;;9.19;100.00
59170;BME280;52474;52.236;5.114;2023-11-21T06:47:13;101480.66;;;9.25;100.00
59170;BME280;52474;52.236;5.114;2023-11-21T06:49:41;101472.94;;;9.22;100.00
59170;BME280;52474;52.236;5.114;2023-11-21T06:52:06;101480.66;;;9.25;100.00
59170;BME280;52474;52.236;5.114;2023-11-21T06:54:33;101475.50;;;9.23;100.00
59170;BME280;52474;52.236;5.114;2023-11-21T06:57:00;101468.72;;;9.19;100.00
59170;BME280;52474;52.236;5.114;2023-11-21T06:59:28;101489.09;;;9.30;100.00
59170;BME280;52474;52.236;5.114;2023-11-21T07:01:54;101492.72;;;9.29;100.00
59170;BME280;52474;52.236;5.114;2023-11-21T07:04:19;101492.41;;;9.34;100.00
59170;BME280;52474;52.236;5.114;2023-11-21T07:06:45;101488.41;;;9.28;100.00
59170;BME280;52474;52.236;5.114;2023-11-21T07:09:11;101494.06;;;9.35;100.00
59170;BME280;52474;52.236;5.114;2023-11-21T07:11:38;101479.50;;;9.29;100.00
59170;BME280;52474;52.236;5.114;2023-11-21T07:14:04;101516.06;;;9.48;100.00
59170;BME280;52474;52.236;5.114;2023-11-21T07:16:39;101496.31;;;9.41;100.00
59170;BME280;52474;52.236;5.114;2023-11-21T07:19:04;101484.47;;;9.34;100.00
59170;BME280;52474;52.236;5.114;2023-11-21T07:21:35;101503.91;;;9.45;100.00
59170;BME280;52474;52.236;5.114;2023-11-21T07:24:04;101509.81;;;9.49;100.00
59170;BME280;52474;52.236;5.114;2023-11-21T07:26:32;101496.41;;;9.39;100.00
59170;BME280;52474;52.236;5.114;2023-11-21T07:28:59;101504.75;;;9.46;100.00
59170;BME280;52474;52.236;5.114;2023-11-21T07:31:25;101530.66;;;9.54;100.00
59170;BME280;52474;52.236;5.114;2023-11-21T07:33:51;101525.16;;;9.57;100.00
59170;BME280;52474;52.236;5.114;2023-11-21T07:36:17;101531.09;;;9.60;100.00
59170;BME280;52474;52.236;5.114;2023-11-21T07:38:49;101536.47;;;9.59;100.00
59170;BME280;52474;52.236;5.114;2023-11-21T07:41:16;101529.91;;;9.52;100.00
59170;BME280;52474;52.236;5.114;2023-11-21T07:43:43;101546.22;;;9.58;100.00
59170;BME280;52474;52.236;5.114;2023-11-21T07:46:11;101560.47;;;9.68;100.00
59170;BME280;52474;52.236;5.114;2023-11-21T07:48:42;101568.19;;;9.72;100.00
59170;BME280;52474;52.236;5.114;2023-11-21T07:51:09;101544.41;;;9.59;100.00
59170;BME280;52474;52.236;5.114;2023-11-21T07:53:35;101545.56;;;9.55;100.00
59170;BME280;52474;52.236;5.114;2023-11-21T07:56:06;101570.63;;;9.75;100.00
59170;BME280;52474;52.236;5.114;2023-11-21T07:58:34;101572.41;;;9.74;100.00
59170;BME280;52474;52.236;5.114;2023-11-21T08:01:02;101555.41;;;9.65;100.00
59170;BME280;52474;52.236;5.114;2023-11-21T08:03:29;101585.44;;;9.77;100.00
59170;BME280;52474;52.236;5.114;2023-11-21T08:05:56;101579.09;;;9.67;100.00
59170;BME280;52474;52.236;5.114;2023-11-21T08:08:23;101551.91;;;9.65;100.00
59170;BME280;52474;52.236;5.114;2023-11-21T08:10:49;101536.03;;;9.52;100.00
59170;BME280;52474;52.236;5.114;2023-11-21T08:13:26;101588.38;;;9.85;100.00
59170;BME280;52474;52.236;5.114;2023-11-21T08:15:55;101584.59;;;9.89;100.00
59170;BME280;52474;52.236;5.114;2023-11-21T08:18:22;101603.41;;;9.98;100.00
59170;BME280;52474;52.236;5.114;2023-11-21T08:20:48;101596.84;;;9.91;100.00
59170;BME280;52474;52.236;5.114;2023-11-21T08:23:17;101603.81;;;10.04;100.00
59170;BME280;52474;52.236;5.114;2023-11-21T08:25:43;101627.59;;;10.17;100.00
59170;BME280;52474;52.236;5.114;2023-11-21T08:28:09;101602.94;;;10.17;100.00
59170;BME280;52474;52.236;5.114;2023-11-21T08:30:35;101615.72;;;10.23;100.00
59170;BME280;52474;52.236;5.114;2023-11-21T08:33:01;101634.06;;;10.39;100.00
59170;BME280;52474;52.236;5.114;2023-11-21T08:35:28;101629.81;;;10.23;100.00
59170;BME280;52474;52.236;5.114;2023-11-21T08:37:54;101652.19;;;10.32;100.00
59170;BME280;52474;52.236;5.114;2023-11-21T08:40:20;101656.41;;;10.35;100.00
59170;BME280;52474;52.236;5.114;2023-11-21T08:42:47;101649.72;;;10.16;100.00
59170;BME280;52474;52.236;5.114;2023-11-21T08:45:16;101644.59;;;10.02;100.00
59170;BME280;52474;52.236;5.114;2023-11-21T08:47:43;101647.31;;;10.00;100.00
59170;BME280;52474;52.236;5.114;2023-11-21T08:50:14;101689.00;;;10.22;100.00
59170;BME280;52474;52.236;5.114;2023-11-21T08:52:44;101622.56;;;9.88;100.00
59170;BME280;52474;52.236;5.114;2023-11-21T08:55:19;101648.91;;;10.03;100.00
59170;BME280;52474;52.236;5.114;2023-11-21T08:57:45;101685.00;;;10.17;100.00
59170;BME280;52474;52.236;5.114;2023-11-21T09:00:12;101693.56;;;10.20;100.00
59170;BME280;52474;52.236;5.114;2023-11-21T09:02:43;101693.97;;;10.27;100.00
59170;BME280;52474;52.236;5.114;2023-11-21T09:05:10;101666.66;;;10.14;100.00
59170;BME280;52474;52.236;5.114;2023-11-21T09:07:36;101684.78;;;10.20;100.00
59170;BME280;52474;52.236;5.114;2023-11-21T09:10:03;101664.69;;;10.04;100.00
59170;BME280;52474;52.236;5.114;2023-11-21T09:12:29;101703.19;;;10.21;100.00
59170;BME280;52474;52.236;5.114;2023-11-21T09:14:55;101655.38;;;9.86;100.00
59170;BME280;52474;52.236;5.114;2023-11-21T09:17:20;101709.47;;;10.07;100.00
59170;BME280;52474;52.236;5.114;2023-11-21T09:19:46;101716.34;;;10.10;100.00
59170;BME280;52474;52.236;5.114;2023-11-21T09:22:16;101672.41;;;9.82;100.00
59170;BME280;52474;52.236;5.114;2023-11-21T09:24:42;101704.25;;;10.06;100.00
59170;BME280;52474;52.236;5.114;2023-11-21T09:27:08;101728.22;;;10.04;100.00
59170;BME280;52474;52.236;5.114;2023-11-21T09:29:35;101726.06;;;9.97;100.00
59170;BME280;52474;52.236;5.114;2023-11-21T09:32:01;101711.38;;;9.93;100.00
59170;BME280;52474;52.236;5.114;2023-11-21T09:34:27;101737.59;;;10.08;100.00
59170;BME280;52474;52.236;5.114;2023-11-21T09:36:52;101753.81;;;10.17;100.00
59170;BME280;52474;52.236;5.114;2023-11-21T09:39:19;101747.78;;;10.15;100.00
59170;BME280;52474;52.236;5.114;2023-11-21T09:42:12;101730.84;;;10.17;100.00
59170;BME280;52474;52.236;5.114;2023-11-21T09:44:54;101738.66;;;10.19;100.00
59170;BME280;52474;52.236;5.114;2023-11-21T09:47:22;101771.94;;;10.36;100.00
59170;BME280;52474;52.236;5.114;2023-11-21T09:49:48;101760.81;;;10.30;100.00
59170;BME280;52474;52.236;5.114;2023-11-21T09:52:27;101749.06;;;10.22;100.00
59170;BME280;52474;52.236;5.114;2023-11-21T09:54:53;101776.91;;;10.40;100.00
59170;BME280;52474;52.236;5.114;2023-11-21T09:57:23;101765.38;;;10.28;100.00
59170;BME280;52474;52.236;5.114;2023-11-21T09:59:53;101778.19;;;10.35;100.00
59170;BME280;52474;52.236;5.114;2023-11-21T10:02:28;101773.81;;;10.21;100.00
59170;BME280;52474;52.236;5.114;2023-11-21T10:04:59;101782.97;;;10.29;100.00
59170;BME280;52474;52.236;5.114;2023-11-21T10:07:26;101771.69;;;10.13;100.00
59170;BME280;52474;52.236;5.114;2023-11-21T10:09:53;101798.22;;;10.39;100.00
59170;BME280;52474;52.236;5.114;2023-11-21T10:12:20;101780.59;;;10.25;100.00
59170;BME280;52474;52.236;5.114;2023-11-21T10:14:48;101798.38;;;10.23;100.00
59170;BME280;52474;52.236;5.114;2023-11-21T10:17:15;101812.47;;;10.23;100.00
59170;BME280;52474;52.236;5.114;2023-11-21T10:19:46;101805.50;;;10.22;100.00
59170;BME280;52474;52.236;5.114;2023-11-21T10:22:14;101816.56;;;10.29;100.00
59170;BME280;52474;52.236;5.114;2023-11-21T10:24:40;101828.16;;;10.26;100.00
59170;BME280;52474;52.236;5.114;2023-11-21T10:27:08;101811.53;;;10.12;100.00
59170;BME280;52474;52.236;5.114;2023-11-21T10:29:33;101817.34;;;10.17;100.00
59170;BME280;52474;52.236;5.114;2023-11-21T10:32:04;101838.84;;;10.25;100.00
59170;BME280;52474;52.236;5.114;2023-11-21T10:34:31;101825.09;;;10.20;100.00
59170;BME280;52474;52.236;5.114;2023-11-21T10:36:57;101850.75;;;10.32;100.00
59170;BME280;52474;52.236;5.114;2023-11-21T10:39:24;101844.75;;;10.16;100.00
59170;BME280;52474;52.236;5.114;2023-11-21T10:41:54;101853.88;;;10.24;100.00
59170;BME280;52474;52.236;5.114;2023-11-21T10:44:20;101846.13;;;10.21;100.00
59170;BME280;52474;52.236;5.114;2023-11-21T10:46:48;101854.06;;;10.21;100.00
59170;BME280;52474;52.236;5.114;2023-11-21T10:49:19;101867.69;;;10.29;100.00
59170;BME280;52474;52.236;5.114;2023-11-21T10:51:45;101862.03;;;10.21;100.00
59170;BME280;52474;52.236;5.114;2023-11-21T10:54:18;101847.84;;;10.22;100.00
59170;BME280;52474;52.236;5.114;2023-11-21T10:56:43;101866.84;;;10.29;100.00
59170;BME280;52474;52.236;5.114;2023-11-21T10:59:10;101863.81;;;10.21;100.00
59170;BME280;52474;52.236;5.114;2023-11-21T11:01:45;101857.78;;;10.19;100.00
59170;BME280;52474;52.236;5.114;2023-11-21T11:04:14;101869.97;;;10.21;100.00
59170;BME280;52474;52.236;5.114;2023-11-21T11:06:46;101855.63;;;9.98;100.00
59170;BME280;52474;52.236;5.114;2023-11-21T11:09:17;101885.66;;;10.12;100.00
59170;BME280;52474;52.236;5.114;2023-11-21T11:11:43;101890.59;;;10.16;100.00
59170;BME280;52474;52.236;5.114;2023-11-21T11:14:12;101888.06;;;10.02;100.00
59170;BME280;52474;52.236;5.114;2023-11-21T11:16:39;101886.09;;;9.91;100.00
59170;BME280;52474;52.236;5.114;2023-11-21T11:19:09;101892.16;;;10.06;100.00
59170;BME280;52474;52.236;5.114;2023-11-21T11:24:44;101902.06;;;10.17;100.00
59170;BME280;52474;52.236;5.114;2023-11-21T11:32:48;101875.91;;;10.25;100.00
59170;BME280;52474;52.236;5.114;2023-11-21T11:38:02;101878.50;;;10.39;100.00
59170;BME280;52474;52.236;5.114;2023-11-21T11:40:41;101908.72;;;10.49;100.00
59170;BME280;52474;52.236;5.114;2023-11-21T11:43:07;101917.72;;;10.47;100.00
59170;BME280;52474;52.236;5.114;2023-11-21T11:45:34;101872.50;;;10.10;100.00
59170;BME280;52474;52.236;5.114;2023-11-21T11:48:07;101881.41;;;10.22;100.00
59170;BME280;52474;52.236;5.114;2023-11-21T11:50:33;101933.28;;;10.39;100.00
59170;BME280;52474;52.236;5.114;2023-11-21T11:53:13;101924.88;;;10.32;100.00
59170;BME280;52474;52.236;5.114;2023-11-21T11:55:39;101895.41;;;9.97;100.00
59170;BME280;52474;52.236;5.114;2023-11-21T11:58:06;101906.88;;;9.97;100.00
59170;BME280;52474;52.236;5.114;2023-11-21T12:03:01;101905.06;;;9.98;100.00
59170;BME280;52474;52.236;5.114;2023-11-21T12:05:32;101934.50;;;10.06;100.00
59170;BME280;52474;52.236;5.114;2023-11-21T12:08:03;101925.13;;;10.15;100.00
59170;BME280;52474;52.236;5.114;2023-11-21T12:10:34;101932.22;;;10.14;100.00
59170;BME280;52474;52.236;5.114;2023-11-21T12:13:07;101942.38;;;10.07;100.00
59170;BME280;52474;52.236;5.114;2023-11-21T12:15:33;101929.09;;;9.95;100.00
59170;BME280;52474;52.236;5.114;2023-11-21T12:18:00;101935.94;;;10.12;100.00
59170;BME280;52474;52.236;5.114;2023-11-21T12:20:30;101919.16;;;9.98;100.00
59170;BME280;52474;52.236;5.114;2023-11-21T12:22:58;101924.66;;;9.95;100.00
59170;BME280;52474;52.236;5.114;2023-11-21T12:25:30;101958.75;;;10.27;100.00
59170;BME280;52474;52.236;5.114;2023-11-21T12:28:01;101923.72;;;10.09;100.00
59170;BME280;52474;52.236;5.114;2023-11-21T12:30:32;101959.13;;;10.21;100.00
59170;BME280;52474;52.236;5.114;2023-11-21T12:33:01;101970.69;;;10.20;100.00
59170;BME280;52474;52.236;5.114;2023-11-21T12:35:28;101944.84;;;9.96;100.00
59170;BME280;52474;52.236;5.114;2023-11-21T12:37:56;101958.00;;;9.98;100.00
59170;BME280;52474;52.236;5.114;2023-11-21T12:40:25;101981.72;;;9.99;100.00
59170;BME280;52474;52.236;5.114;2023-11-21T12:42:52;101961.66;;;9.82;100.00
59170;BME280;52474;52.236;5.114;2023-11-21T12:45:20;101967.00;;;9.95;100.00
59170;BME280;52474;52.236;5.114;2023-11-21T12:47:48;101971.81;;;9.88;100.00
59170;BME280;52474;52.236;5.114;2023-11-21T12:50:15;101981.34;;;9.91;100.00
59170;BME280;52474;52.236;5.114;2023-11-21T12:52:42;101990.84;;;9.81;100.00
59170;BME280;52474;52.236;5.114;2023-11-21T12:55:13;101984.00;;;9.91;100.00
59170;BME280;52474;52.236;5.114;2023-11-21T12:57:44;101992.59;;;9.95;100.00
59170;BME280;52474;52.236;5.114;2023-11-21T13:00:12;101999.22;;;10.02;100.00
59170;BME280;52474;52.236;5.114;2023-11-21T13:02:51;101998.28;;;10.16;100.00